createdAt,value
2018-10-21T00:00:44.082Z,29.80
2018-10-21T00:01:47.670Z,30.97
2018-10-21T00:02:51.201Z,32.43
2018-10-21T00:03:54.726Z,28.57
2018-10-21T00:04:58.271Z,32.17
2018-10-21T00:06:02.324Z,32.63
2018-10-21T00:07:06.045Z,32.80
2018-10-21T00:08:09.629Z,31.33
2018-10-21T00:09:13.666Z,33.83
2018-10-21T00:10:17.167Z,34.00
2018-10-21T00:11:20.733Z,31.97
2018-10-21T00:12:24.242Z,34.40
2018-10-21T00:13:27.745Z,35.33
2018-10-21T00:14:31.285Z,32.27
2018-10-21T00:15:35.023Z,35.37
2018-10-21T00:16:39.085Z,31.77
2018-10-21T00:17:42.613Z,38.97
2018-10-21T00:18:46.126Z,34.27
2018-10-21T00:19:49.694Z,32.33
2018-10-21T00:20:53.247Z,31.07
2018-10-21T00:21:56.745Z,31.83
2018-10-21T00:23:00.269Z,30.37
2018-10-21T00:24:04.059Z,35.93
2018-10-21T00:25:07.930Z,30.27
2018-10-21T00:26:11.450Z,31.63
2018-10-21T00:27:14.994Z,34.03
2018-10-21T00:28:18.449Z,31.13
2018-10-21T00:29:21.935Z,34.23
2018-10-21T00:30:25.559Z,34.03
2018-10-21T00:31:29.045Z,28.17
2018-10-21T00:32:37.963Z,35.00
2018-10-21T00:33:41.698Z,32.20
2018-10-21T00:34:45.190Z,35.10
2018-10-21T00:35:48.667Z,34.97
2018-10-21T00:36:52.144Z,32.00
2018-10-21T00:37:55.646Z,34.57
2018-10-21T00:38:59.133Z,32.90
2018-10-21T00:40:02.642Z,36.13
2018-10-21T00:41:06.410Z,30.00
2018-10-21T00:42:09.983Z,34.10
2018-10-21T00:43:13.613Z,31.67
2018-10-21T00:44:17.162Z,31.13
2018-10-21T00:45:20.623Z,31.97
2018-10-21T00:46:24.265Z,31.67
2018-10-21T00:47:28.375Z,39.17
2018-10-21T00:48:31.933Z,32.27
2018-10-21T00:49:35.395Z,38.33
2018-10-21T00:50:39.285Z,39.70
2018-10-21T00:51:43.253Z,40.87
2018-10-21T00:52:46.718Z,38.23
2018-10-21T00:53:50.466Z,36.10
2018-10-21T00:54:53.921Z,38.80
2018-10-21T00:55:57.397Z,39.30
2018-10-21T00:57:01.177Z,42.37
2018-10-21T00:58:04.682Z,43.23
2018-10-21T00:59:09.328Z,43.23
2018-10-21T01:00:13.718Z,42.60
2018-10-21T01:01:17.249Z,46.73
2018-10-21T01:02:21.103Z,45.33
2018-10-21T01:03:24.594Z,42.83
2018-10-21T01:04:28.076Z,42.50
2018-10-21T01:05:31.548Z,38.23
2018-10-21T01:06:35.169Z,43.63
2018-10-21T01:07:38.735Z,40.23
2018-10-21T01:08:42.383Z,40.73
2018-10-21T01:09:45.891Z,45.30
2018-10-21T01:10:49.342Z,38.97
2018-10-21T01:11:53.012Z,42.13
2018-10-21T01:12:56.756Z,42.30
2018-10-21T01:14:00.265Z,39.90
2018-10-21T01:15:03.869Z,40.03
2018-10-21T01:16:07.522Z,40.10
2018-10-21T01:17:11.060Z,47.57
2018-10-21T01:18:14.554Z,44.73
2018-10-21T01:19:18.060Z,42.50
2018-10-21T01:20:21.607Z,39.77
2018-10-21T01:21:25.270Z,38.80
2018-10-21T01:22:28.815Z,38.23
2018-10-21T01:23:32.347Z,41.43
2018-10-21T01:24:36.367Z,41.90
2018-10-21T01:25:39.895Z,37.90
2018-10-21T01:26:43.388Z,39.80
2018-10-21T01:27:47.274Z,34.33
2018-10-21T01:28:50.790Z,39.17
2018-10-21T01:29:54.382Z,40.67
2018-10-21T01:30:57.986Z,42.07
2018-10-21T01:32:01.480Z,39.33
2018-10-21T01:33:05.551Z,44.43
2018-10-21T01:34:09.002Z,43.20
2018-10-21T01:35:12.633Z,44.43
2018-10-21T01:36:16.401Z,40.67
2018-10-21T01:37:20.498Z,41.60
2018-10-21T01:38:24.015Z,43.97
2018-10-21T01:39:37.941Z,42.70
2018-10-21T01:40:44.333Z,42.63
2018-10-21T01:41:47.850Z,48.50
2018-10-21T01:42:51.419Z,41.57
2018-10-21T01:43:54.896Z,42.93
2018-10-21T01:44:58.421Z,41.10
2018-10-21T01:46:02.654Z,43.20
2018-10-21T01:47:06.130Z,40.97
2018-10-21T01:48:10.784Z,44.20
2018-10-21T01:49:14.376Z,39.57
2018-10-21T01:50:17.832Z,43.87
2018-10-21T01:51:21.307Z,47.80
2018-10-21T01:52:24.875Z,47.00
2018-10-21T01:53:28.313Z,43.57
2018-10-21T01:54:31.848Z,43.87
2018-10-21T01:55:35.349Z,53.27
2018-10-21T01:56:39.530Z,51.67
2018-10-21T01:57:43.273Z,50.23
2018-10-21T01:58:46.865Z,49.40
2018-10-21T01:59:50.379Z,43.77
2018-10-21T02:00:53.845Z,42.73
2018-10-21T02:01:57.361Z,44.87
2018-10-21T02:03:01.173Z,40.67
2018-10-21T02:04:05.157Z,50.37
2018-10-21T02:05:08.696Z,40.23
2018-10-21T02:06:12.192Z,47.30
2018-10-21T02:07:15.793Z,47.00
2018-10-21T02:08:19.378Z,48.47
2018-10-21T02:09:22.854Z,44.80
2018-10-21T02:10:26.510Z,45.47
2018-10-21T02:11:30.047Z,44.13
2018-10-21T02:12:33.583Z,43.13
2018-10-21T02:13:37.053Z,45.93
2018-10-21T02:14:40.590Z,46.33
2018-10-21T02:15:44.145Z,38.93
2018-10-21T02:16:47.668Z,45.20
2018-10-21T02:17:51.175Z,42.63
2018-10-21T02:18:54.664Z,45.10
2018-10-21T02:19:58.267Z,49.17
2018-10-21T02:21:01.950Z,43.33
2018-10-21T02:22:05.489Z,42.53
2018-10-21T02:23:09.031Z,45.63
2018-10-21T02:24:12.637Z,46.73
2018-10-21T02:25:16.159Z,42.50
2018-10-21T02:26:19.691Z,41.67
2018-10-21T02:27:23.252Z,43.83
2018-10-21T02:28:26.829Z,47.50
2018-10-21T02:29:30.325Z,45.50
2018-10-21T02:30:33.791Z,41.90
2018-10-21T02:31:37.277Z,41.80
2018-10-21T02:32:40.835Z,46.10
2018-10-21T02:33:44.409Z,50.77
2018-10-21T02:34:47.886Z,43.40
2018-10-21T02:35:51.400Z,42.23
2018-10-21T02:36:54.899Z,46.57
2018-10-21T02:37:59.490Z,47.27
2018-10-21T02:39:03.154Z,46.27
2018-10-21T02:40:13.003Z,42.20
2018-10-21T02:41:37.032Z,46.17
2018-10-21T02:42:40.570Z,51.60
2018-10-21T02:43:44.134Z,46.67
2018-10-21T02:44:47.722Z,44.83
2018-10-21T02:45:51.305Z,45.77
2018-10-21T02:46:56.246Z,49.00
2018-10-21T02:47:59.708Z,47.07
2018-10-21T02:49:04.975Z,44.13
2018-10-21T02:50:08.767Z,45.70
2018-10-21T02:51:13.145Z,48.03
2018-10-21T02:52:16.556Z,45.23
2018-10-21T02:53:20.109Z,47.37
2018-10-21T02:54:24.984Z,41.47
2018-10-21T02:55:28.437Z,39.77
2018-10-21T02:56:32.054Z,46.33
2018-10-21T02:57:35.534Z,40.83
2018-10-21T02:58:40.343Z,44.03
2018-10-21T02:59:43.810Z,39.23
2018-10-21T03:00:47.290Z,44.53
2018-10-21T03:01:50.820Z,44.70
2018-10-21T03:02:54.291Z,45.30
2018-10-21T03:03:57.797Z,45.43
2018-10-21T03:05:01.272Z,42.97
2018-10-21T03:06:04.938Z,43.63
2018-10-21T03:07:08.478Z,43.47
2018-10-21T03:08:12.090Z,41.33
2018-10-21T03:09:15.635Z,42.47
2018-10-21T03:10:19.142Z,42.67
2018-10-21T03:11:22.667Z,44.53
2018-10-21T03:12:26.180Z,44.67
2018-10-21T03:13:30.232Z,43.90
2018-10-21T03:14:33.747Z,46.23
2018-10-21T03:15:37.203Z,43.30
2018-10-21T03:16:40.782Z,42.77
2018-10-21T03:17:44.308Z,44.87
2018-10-21T03:18:47.861Z,49.27
2018-10-21T03:19:51.433Z,43.83
2018-10-21T03:20:55.258Z,47.37
2018-10-21T03:21:58.753Z,45.77
2018-10-21T03:23:02.253Z,46.03
2018-10-21T03:24:05.850Z,48.77
2018-10-21T03:25:09.416Z,45.77
2018-10-21T03:26:12.963Z,49.37
2018-10-21T03:27:16.507Z,45.97
2018-10-21T03:28:19.985Z,52.53
2018-10-21T03:29:23.508Z,47.70
2018-10-21T03:30:26.972Z,49.03
2018-10-21T03:31:30.438Z,44.37
2018-10-21T03:32:34.620Z,48.97
2018-10-21T03:33:38.078Z,58.43
2018-10-21T03:34:41.523Z,52.10
2018-10-21T03:35:45.040Z,46.73
2018-10-21T03:36:48.515Z,48.87
2018-10-21T03:37:52.555Z,55.27
2018-10-21T03:38:56.057Z,55.23
2018-10-21T03:39:59.607Z,47.77
2018-10-21T03:41:03.077Z,51.23
2018-10-21T03:42:06.571Z,52.70
2018-10-21T03:43:10.567Z,51.47
2018-10-21T03:44:14.070Z,55.17
2018-10-21T03:45:17.570Z,53.93
2018-10-21T03:46:21.129Z,55.83
2018-10-21T03:47:24.613Z,52.03
2018-10-21T03:48:28.158Z,58.30
2018-10-21T03:49:31.647Z,48.87
2018-10-21T03:50:35.174Z,53.20
2018-10-21T03:51:38.709Z,46.77
2018-10-21T03:52:42.193Z,52.17
2018-10-21T03:53:45.786Z,47.73
2018-10-21T03:54:49.268Z,50.13
2018-10-21T03:55:52.717Z,48.03
2018-10-21T03:56:56.212Z,48.93
2018-10-21T03:57:59.655Z,51.60
2018-10-21T03:59:03.234Z,46.63
2018-10-21T04:00:07.946Z,42.60
2018-10-21T04:01:11.528Z,48.77
2018-10-21T04:02:15.040Z,49.80
2018-10-21T04:03:18.917Z,49.00
2018-10-21T04:04:22.987Z,48.43
2018-10-21T04:05:26.472Z,51.87
2018-10-21T04:06:30.635Z,44.03
2018-10-21T04:07:34.655Z,48.83
2018-10-21T04:08:38.147Z,47.93
2018-10-21T04:09:41.651Z,46.17
2018-10-21T04:10:45.586Z,45.93
2018-10-21T04:11:49.192Z,45.97
2018-10-21T04:12:52.817Z,49.30
2018-10-21T04:13:56.881Z,46.80
2018-10-21T04:15:01.107Z,48.90
2018-10-21T04:16:04.886Z,50.87
2018-10-21T04:17:08.365Z,43.80
2018-10-21T04:18:12.058Z,43.70
2018-10-21T04:19:15.575Z,47.03
2018-10-21T04:20:19.126Z,38.43
2018-10-21T04:21:22.654Z,47.87
2018-10-21T04:22:26.430Z,43.40
2018-10-21T04:23:30.585Z,44.37
2018-10-21T04:24:34.065Z,46.30
2018-10-21T04:25:38.649Z,47.90
2018-10-21T04:26:42.956Z,43.37
2018-10-21T04:27:46.445Z,46.87
2018-10-21T04:28:49.965Z,49.20
2018-10-21T04:29:53.422Z,44.13
2018-10-21T04:30:57.006Z,46.70
2018-10-21T04:32:00.864Z,48.40
2018-10-21T04:33:11.225Z,49.13
2018-10-21T04:34:14.912Z,45.00
2018-10-21T04:35:18.467Z,44.10
2018-10-21T04:36:27.146Z,46.27
2018-10-21T04:37:42.406Z,42.30
2018-10-21T04:40:35.013Z,45.97
2018-10-21T04:41:38.506Z,39.53
2018-10-21T04:42:42.733Z,41.13
2018-10-21T04:43:46.326Z,43.60
2018-10-21T04:44:49.810Z,49.07
2018-10-21T04:45:53.345Z,44.93
2018-10-21T04:46:56.981Z,44.33
2018-10-21T04:48:00.366Z,45.23
2018-10-21T04:49:04.313Z,48.67
2018-10-21T04:50:09.058Z,43.80
2018-10-21T04:51:12.659Z,41.30
2018-10-21T04:52:16.156Z,46.00
2018-10-21T04:53:19.762Z,41.50
2018-10-21T04:54:23.252Z,40.27
2018-10-21T04:55:26.846Z,40.97
2018-10-21T04:56:30.356Z,42.17
2018-10-21T04:57:34.192Z,41.33
2018-10-21T04:58:37.676Z,38.80
2018-10-21T04:59:41.363Z,43.67
2018-10-21T05:00:45.059Z,42.77
2018-10-21T05:01:49.468Z,38.90
2018-10-21T05:02:53.046Z,38.07
2018-10-21T05:03:56.539Z,39.77
2018-10-21T05:05:00.333Z,38.67
2018-10-21T05:06:03.813Z,41.37
2018-10-21T05:07:07.345Z,40.20
2018-10-21T05:08:10.983Z,37.13
2018-10-21T05:09:14.499Z,41.63
2018-10-21T05:10:26.230Z,44.90
2018-10-21T05:11:29.770Z,38.97
2018-10-21T05:12:33.323Z,39.17
2018-10-21T05:13:37.305Z,44.10
2018-10-21T05:14:40.918Z,41.50
2018-10-21T05:15:45.046Z,40.30
2018-10-21T05:16:48.662Z,37.97
2018-10-21T05:17:52.847Z,41.70
2018-10-21T05:18:56.352Z,46.63
2018-10-21T05:19:59.868Z,36.90
2018-10-21T05:21:04.281Z,39.87
2018-10-21T05:22:08.185Z,39.43
2018-10-21T05:23:11.654Z,37.53
2018-10-21T05:24:15.897Z,41.40
2018-10-21T05:25:19.411Z,38.93
2018-10-21T05:26:23.066Z,42.33
2018-10-21T05:27:26.564Z,39.00
2018-10-21T05:28:30.107Z,42.53
2018-10-21T05:29:33.725Z,39.43
2018-10-21T05:30:37.381Z,38.90
2018-10-21T05:31:40.858Z,41.40
2018-10-21T05:32:45.707Z,43.17
2018-10-21T05:33:49.244Z,39.97
2018-10-21T05:34:53.320Z,44.07
2018-10-21T05:35:57.759Z,39.80
2018-10-21T05:37:01.325Z,40.77
2018-10-21T05:38:04.924Z,36.70
2018-10-21T05:39:10.587Z,39.43
2018-10-21T05:40:16.347Z,39.83
2018-10-21T05:41:19.774Z,38.10
2018-10-21T05:42:24.358Z,37.60
2018-10-21T05:43:27.863Z,41.10
2018-10-21T05:44:31.471Z,39.30
2018-10-21T05:45:34.972Z,37.90
2018-10-21T05:46:42.261Z,39.97
2018-10-21T05:47:46.163Z,38.10
2018-10-21T05:48:49.678Z,38.13
2018-10-21T05:49:55.026Z,40.97
2018-10-21T05:50:58.558Z,42.30
2018-10-21T05:52:02.105Z,36.13
2018-10-21T05:53:05.873Z,35.60
2018-10-21T05:54:10.609Z,36.50
2018-10-21T05:55:14.993Z,35.50
2018-10-21T05:56:18.720Z,35.40
2018-10-21T05:57:22.248Z,40.80
2018-10-21T05:58:26.150Z,35.17
2018-10-21T05:59:30.062Z,37.57
2018-10-21T06:00:35.033Z,40.17
2018-10-21T06:01:40.179Z,36.60
2018-10-21T06:02:44.327Z,36.23
2018-10-21T06:03:47.801Z,36.03
2018-10-21T06:04:52.880Z,36.37
2018-10-21T06:05:57.105Z,35.63
2018-10-21T06:07:00.920Z,36.30
2018-10-21T06:08:04.814Z,35.93
2018-10-21T06:09:10.122Z,33.23
2018-10-21T06:10:14.155Z,34.83
2018-10-21T06:11:18.323Z,38.20
2018-10-21T06:12:22.058Z,34.57
2018-10-21T06:13:25.572Z,35.87
2018-10-21T06:14:29.228Z,38.43
2018-10-21T06:15:33.208Z,35.73
2018-10-21T06:16:41.977Z,37.17
2018-10-21T06:17:45.601Z,36.00
2018-10-21T06:18:49.191Z,32.30
2018-10-21T06:19:55.803Z,34.73
2018-10-21T06:21:03.833Z,31.30
2018-10-21T06:22:07.955Z,34.03
2018-10-21T06:23:12.098Z,33.70
2018-10-21T06:24:16.153Z,35.13
2018-10-21T06:25:19.690Z,34.37
2018-10-21T06:26:23.350Z,35.33
2018-10-21T06:27:26.927Z,31.67
2018-10-21T06:28:30.631Z,36.70
2018-10-21T06:29:35.118Z,33.57
2018-10-21T06:30:38.744Z,34.03
2018-10-21T06:31:42.282Z,31.73
2018-10-21T06:32:46.840Z,36.23
2018-10-21T06:33:50.598Z,33.87
2018-10-21T06:34:54.783Z,30.83
2018-10-21T06:35:58.792Z,32.70
2018-10-21T06:37:02.459Z,34.87
2018-10-21T06:38:06.420Z,34.90
2018-10-21T06:39:10.295Z,29.43
2018-10-21T06:40:13.871Z,38.13
2018-10-21T06:41:17.526Z,35.50
2018-10-21T06:42:21.241Z,39.53
2018-10-21T06:43:24.841Z,32.93
2018-10-21T06:44:29.199Z,35.60
2018-10-21T06:45:34.571Z,37.73
2018-10-21T06:46:38.362Z,36.17
2018-10-21T06:47:41.858Z,31.37
2018-10-21T06:48:45.867Z,33.80
2018-10-21T06:49:50.030Z,32.27
2018-10-21T06:50:54.468Z,32.90
2018-10-21T06:51:58.036Z,30.90
2018-10-21T06:53:01.740Z,33.97
2018-10-21T06:54:05.845Z,32.30
2018-10-21T06:55:09.418Z,34.50
2018-10-21T06:56:13.066Z,41.13
2018-10-21T06:57:17.642Z,31.73
2018-10-21T06:58:21.089Z,34.10
2018-10-21T06:59:25.001Z,33.07
2018-10-21T07:00:28.608Z,35.77
2018-10-21T07:01:32.830Z,36.73
2018-10-21T07:02:36.370Z,35.40
2018-10-21T07:03:39.882Z,34.37
2018-10-21T07:04:44.041Z,35.47
2018-10-21T07:06:22.367Z,35.43
2018-10-21T07:07:25.892Z,32.60
2018-10-21T07:08:31.098Z,35.90
2018-10-21T07:09:41.368Z,31.77
2018-10-21T07:10:45.178Z,33.53
2018-10-21T07:11:50.074Z,33.73
2018-10-21T07:12:53.614Z,31.77
2018-10-21T07:13:57.249Z,31.67
2018-10-21T07:15:00.741Z,30.80
2018-10-21T07:16:04.852Z,33.33
2018-10-21T07:17:08.755Z,33.03
2018-10-21T07:18:12.476Z,37.03
2018-10-21T07:19:16.238Z,29.00
2018-10-21T07:20:19.853Z,33.57
2018-10-21T07:21:23.327Z,28.37
2018-10-21T07:22:27.612Z,33.83
2018-10-21T07:23:31.182Z,31.03
2018-10-21T07:24:34.710Z,27.93
2018-10-21T07:25:38.984Z,32.33
2018-10-21T07:26:42.559Z,30.07
2018-10-21T07:27:46.199Z,31.47
2018-10-21T07:28:49.736Z,27.93
2018-10-21T07:29:53.229Z,26.63
2018-10-21T07:30:56.973Z,26.17
2018-10-21T07:32:00.660Z,25.93
2018-10-21T07:33:04.472Z,26.60
2018-10-21T07:34:08.124Z,23.77
2018-10-21T07:35:14.386Z,19.50
2018-10-21T07:36:18.704Z,20.30
2018-10-21T07:37:22.398Z,23.00
2018-10-21T07:38:25.904Z,20.57
2018-10-21T07:39:29.488Z,18.87
2018-10-21T07:40:33.098Z,22.83
2018-10-21T07:41:36.924Z,19.27
2018-10-21T07:42:40.862Z,19.30
2018-10-21T07:43:44.476Z,20.23
2018-10-21T07:44:48.343Z,19.53
2018-10-21T07:45:52.520Z,17.13
2018-10-21T07:46:56.711Z,18.93
2018-10-21T07:48:00.455Z,18.77
2018-10-21T07:49:04.320Z,19.83
2018-10-21T07:50:08.361Z,18.35
2018-10-21T07:51:12.168Z,19.80
2018-10-21T07:52:15.802Z,16.25
2018-10-21T07:53:19.302Z,16.70
2018-10-21T07:54:22.831Z,16.53
2018-10-21T07:55:26.393Z,21.33
2018-10-21T07:56:30.666Z,16.62
2018-10-21T07:57:34.218Z,18.77
2018-10-21T07:58:37.812Z,17.42
2018-10-21T07:59:41.353Z,18.17
2018-10-21T08:00:45.176Z,16.25
2018-10-21T08:01:49.376Z,18.90
2018-10-21T08:02:52.908Z,16.97
2018-10-21T08:03:56.413Z,16.07
2018-10-21T08:05:00.075Z,19.20
2018-10-21T08:06:26.512Z,16.40
2018-10-21T08:07:41.145Z,16.55
2018-10-21T08:08:44.981Z,17.60
2018-10-21T08:09:48.773Z,16.42
2018-10-21T08:10:52.476Z,19.55
2018-10-21T08:11:56.012Z,18.07
2018-10-21T08:12:59.637Z,15.25
2018-10-21T08:14:03.299Z,16.85
2018-10-21T08:15:07.133Z,14.03
2018-10-21T08:16:10.746Z,16.10
2018-10-21T08:17:14.341Z,19.10
2018-10-21T08:18:18.036Z,16.27
2018-10-21T08:19:21.615Z,15.10
2018-10-21T08:20:25.924Z,14.35
2018-10-21T08:21:31.081Z,17.07
2018-10-21T08:22:34.593Z,16.45
2018-10-21T08:23:38.669Z,17.20
2018-10-21T08:24:42.402Z,17.95
2018-10-21T08:25:47.537Z,18.10
2018-10-21T08:26:51.226Z,16.65
2018-10-21T08:27:54.886Z,17.73
2018-10-21T08:28:58.381Z,18.12
2018-10-21T08:30:01.995Z,17.50
2018-10-21T08:31:06.016Z,17.32
2018-10-21T08:32:09.588Z,15.93
2018-10-21T08:33:13.311Z,16.10
2018-10-21T08:34:16.982Z,15.58
2018-10-21T08:35:21.263Z,22.25
2018-10-21T08:36:25.355Z,15.80
2018-10-21T08:37:28.921Z,16.15
2018-10-21T08:38:32.538Z,20.95
2018-10-21T08:39:36.214Z,19.75
2018-10-21T08:40:39.869Z,17.32
2018-10-21T08:41:43.889Z,16.30
2018-10-21T08:42:47.682Z,19.37
2018-10-21T08:43:51.467Z,16.52
2018-10-21T08:44:55.123Z,16.57
2018-10-21T08:45:59.822Z,20.75
2018-10-21T08:47:04.096Z,17.00
2018-10-21T08:48:08.572Z,17.73
2018-10-21T08:49:12.596Z,19.27
2018-10-21T08:50:16.415Z,17.37
2018-10-21T08:51:20.195Z,19.98
2018-10-21T08:52:23.785Z,17.92
2018-10-21T08:53:27.398Z,19.17
2018-10-21T08:54:30.966Z,19.23
2018-10-21T08:55:35.341Z,23.52
2018-10-21T08:56:39.272Z,19.25
2018-10-21T08:57:43.722Z,19.12
2018-10-21T08:58:47.977Z,19.15
2018-10-21T08:59:52.453Z,19.50
2018-10-21T09:00:56.142Z,21.05
2018-10-21T09:01:59.884Z,25.55
2018-10-21T09:03:03.778Z,19.52
2018-10-21T09:04:07.435Z,21.87
2018-10-21T09:05:12.575Z,20.43
2018-10-21T09:06:16.441Z,18.77
2018-10-21T09:07:21.160Z,17.65
2018-10-21T09:08:25.976Z,17.32
2018-10-21T09:09:30.004Z,16.90
2018-10-21T09:10:33.993Z,20.17
2018-10-21T09:11:37.646Z,18.45
2018-10-21T09:12:42.245Z,18.30
2018-10-21T09:13:46.106Z,18.45
2018-10-21T09:14:49.954Z,21.02
2018-10-21T09:15:53.981Z,20.82
2018-10-21T09:16:57.771Z,18.17
2018-10-21T09:18:01.413Z,17.67
2018-10-21T09:19:05.664Z,20.50
2018-10-21T09:20:13.479Z,17.98
2018-10-21T09:21:17.156Z,17.95
2018-10-21T09:22:22.387Z,21.10
2018-10-21T09:23:26.091Z,17.75
2018-10-21T09:24:29.905Z,22.37
2018-10-21T09:25:33.953Z,18.27
2018-10-21T09:26:38.543Z,19.25
2018-10-21T09:27:43.862Z,17.15
2018-10-21T09:28:51.391Z,17.00
2018-10-21T09:29:55.923Z,19.55
2018-10-21T09:31:00.263Z,20.10
2018-10-21T09:32:04.091Z,21.05
2018-10-21T09:33:09.068Z,21.77
2018-10-21T09:34:13.333Z,18.92
2018-10-21T09:35:18.127Z,17.87
2018-10-21T09:36:22.395Z,18.37
2018-10-21T09:37:26.628Z,23.42
2018-10-21T09:38:30.238Z,16.48
2018-10-21T09:39:33.947Z,19.17
2018-10-21T09:40:37.745Z,18.45
2018-10-21T09:41:42.516Z,20.88
2018-10-21T09:42:46.952Z,19.23
2018-10-21T09:43:51.520Z,19.80
2018-10-21T09:44:55.044Z,20.15
2018-10-21T09:45:59.797Z,18.48
2018-10-21T09:47:03.512Z,18.32
2018-10-21T09:48:07.199Z,23.65
2018-10-21T09:49:12.490Z,20.95
2018-10-21T09:50:16.010Z,18.07
2018-10-21T09:51:19.574Z,18.85
2018-10-21T09:52:23.450Z,17.62
2018-10-21T09:53:27.083Z,18.92
2018-10-21T09:54:33.064Z,19.75
2018-10-21T09:55:40.633Z,19.37
2018-10-21T09:56:47.183Z,21.33
2018-10-21T09:57:51.369Z,24.20
2018-10-21T09:58:55.031Z,18.40
2018-10-21T09:59:58.817Z,16.30
2018-10-21T10:01:08.425Z,19.90
2018-10-21T10:02:18.019Z,18.50
2018-10-21T10:03:21.872Z,18.40
2018-10-21T10:04:26.539Z,19.55
2018-10-21T10:05:30.103Z,18.75
2018-10-21T10:06:33.988Z,17.60
2018-10-21T10:07:37.718Z,21.80
2018-10-21T10:08:41.353Z,18.85
2018-10-21T10:09:46.303Z,20.02
2018-10-21T10:10:50.544Z,17.77
2018-10-21T10:11:54.080Z,15.83
2018-10-21T10:12:57.873Z,19.57
2018-10-21T10:14:01.486Z,18.70
2018-10-21T10:15:06.385Z,19.10
2018-10-21T10:16:10.327Z,13.70
2018-10-21T10:17:15.013Z,22.02
2018-10-21T10:18:18.638Z,17.02
2018-10-21T10:19:22.872Z,12.78
2018-10-21T10:20:28.130Z,21.85
2018-10-21T10:21:32.574Z,17.87
2018-10-21T10:22:36.785Z,17.55
2018-10-21T10:23:40.563Z,19.70
2018-10-21T10:24:44.253Z,17.37
2018-10-21T10:25:48.115Z,14.95
2018-10-21T10:26:52.456Z,15.65
2018-10-21T10:27:56.782Z,18.75
2018-10-21T10:29:01.264Z,16.82
2018-10-21T10:30:05.089Z,15.93
2018-10-21T10:31:08.674Z,14.30
2018-10-21T10:32:12.343Z,14.90
2018-10-21T10:33:15.869Z,17.05
2018-10-21T10:34:19.694Z,19.23
2018-10-21T10:35:23.576Z,17.45
2018-10-21T10:36:27.248Z,17.77
2018-10-21T10:37:31.527Z,15.10
2018-10-21T10:38:36.037Z,17.95
2018-10-21T10:39:40.291Z,17.95
2018-10-21T10:40:45.034Z,20.48
2018-10-21T10:41:49.049Z,17.10
2018-10-21T10:42:52.855Z,20.52
2018-10-21T10:43:56.753Z,18.00
2018-10-21T10:45:01.100Z,19.60
2018-10-21T10:46:04.915Z,17.85
2018-10-21T10:47:08.519Z,19.10
2018-10-21T10:48:12.246Z,14.90
2018-10-21T10:49:16.127Z,16.70
2018-10-21T10:50:21.008Z,18.52
2018-10-21T10:51:24.742Z,23.00
2018-10-21T10:52:28.543Z,18.55
2018-10-21T10:53:33.153Z,16.77
2018-10-21T10:54:37.273Z,16.70
2018-10-21T10:55:46.616Z,16.75
2018-10-21T10:56:50.163Z,18.35
2018-10-21T10:57:53.874Z,18.07
2018-10-21T10:58:58.623Z,19.35
2018-10-21T11:00:02.899Z,16.15
2018-10-21T11:01:06.626Z,12.47
2018-10-21T11:02:10.379Z,17.57
2018-10-21T11:03:14.355Z,18.12
2018-10-21T11:04:18.025Z,16.93
2018-10-21T11:05:21.520Z,17.65
2018-10-21T11:06:25.542Z,16.48
2018-10-21T11:07:29.719Z,17.27
2018-10-21T11:08:33.667Z,16.15
2018-10-21T11:09:37.219Z,15.88
2018-10-21T11:10:40.843Z,15.78
2018-10-21T11:11:44.446Z,15.85
2018-10-21T11:12:48.153Z,16.97
2018-10-21T11:13:52.145Z,16.52
2018-10-21T11:14:55.932Z,14.87
2018-10-21T11:15:59.669Z,17.92
2018-10-21T11:17:03.366Z,17.15
2018-10-21T11:18:07.023Z,15.83
2018-10-21T11:19:10.894Z,16.57
2018-10-21T11:20:14.635Z,15.75
2018-10-21T11:21:18.320Z,17.05
2018-10-21T11:22:22.732Z,16.40
2018-10-21T11:23:26.249Z,13.25
2018-10-21T11:24:30.904Z,14.07
2018-10-21T11:25:34.546Z,16.23
2018-10-21T11:26:38.187Z,13.32
2018-10-21T11:27:42.635Z,15.18
2018-10-21T11:28:47.090Z,16.73
2018-10-21T11:29:51.316Z,16.10
2018-10-21T11:30:55.015Z,15.50
2018-10-21T11:31:58.493Z,14.30
2018-10-21T11:33:02.025Z,14.90
2018-10-21T11:34:06.425Z,12.00
2018-10-21T11:35:09.985Z,12.23
2018-10-21T11:36:13.714Z,14.47
2018-10-21T11:37:17.504Z,14.70
2018-10-21T11:38:21.871Z,13.78
2018-10-21T11:39:25.531Z,16.23
2018-10-21T11:40:30.118Z,16.15
2018-10-21T11:41:33.778Z,13.98
2018-10-21T11:42:37.452Z,15.72
2018-10-21T11:43:41.967Z,15.90
2018-10-21T11:44:45.901Z,12.50
2018-10-21T11:45:49.684Z,16.75
2018-10-21T11:46:53.925Z,17.62
2018-10-21T11:47:57.773Z,13.58
2018-10-21T11:49:02.416Z,14.45
2018-10-21T11:50:06.600Z,14.43
2018-10-21T11:51:10.887Z,13.15
2018-10-21T11:52:14.596Z,11.43
2018-10-21T11:53:18.303Z,10.03
2018-10-21T11:54:22.566Z,15.32
2018-10-21T11:55:26.851Z,16.07
2018-10-21T11:56:30.614Z,13.05
2018-10-21T11:57:34.748Z,11.50
2018-10-21T11:58:39.123Z,15.08
2018-10-21T11:59:42.773Z,13.13
2018-10-21T12:00:47.846Z,13.53
2018-10-21T12:01:52.261Z,12.47
2018-10-21T12:02:56.125Z,13.48
2018-10-21T12:03:59.760Z,16.12
2018-10-21T12:05:03.393Z,18.27
2018-10-21T12:06:07.200Z,13.38
2018-10-21T12:07:11.393Z,15.28
2018-10-21T12:08:15.073Z,11.45
2018-10-21T12:09:18.661Z,12.43
2018-10-21T12:10:22.479Z,16.20
2018-10-21T12:11:27.495Z,13.65
2018-10-21T12:12:31.181Z,13.72
2018-10-21T12:13:34.915Z,15.43
2018-10-21T12:14:38.622Z,11.35
2018-10-21T12:15:43.176Z,13.75
2018-10-21T12:16:46.945Z,12.23
2018-10-21T12:17:50.561Z,12.88
2018-10-21T12:18:55.043Z,12.05
2018-10-21T12:19:59.490Z,16.77
2018-10-21T12:21:03.062Z,13.10
2018-10-21T12:22:06.798Z,11.88
2018-10-21T12:23:10.703Z,13.45
2018-10-21T12:24:15.203Z,11.40
2018-10-21T12:25:18.911Z,10.98
2018-10-21T12:26:23.290Z,11.05
2018-10-21T12:27:27.183Z,9.90
2018-10-21T12:28:30.946Z,7.50
2018-10-21T12:29:34.762Z,6.70
2018-10-21T12:30:38.428Z,8.65
2018-10-21T12:31:42.191Z,9.73
2018-10-21T12:32:45.712Z,8.43
2018-10-21T12:33:49.866Z,8.38
2018-10-21T12:34:54.058Z,9.88
2018-10-21T12:35:57.677Z,7.10
2018-10-21T12:37:01.507Z,8.10
2018-10-21T12:38:05.371Z,7.08
2018-10-21T12:39:10.673Z,5.65
2018-10-21T12:40:15.294Z,7.35
2018-10-21T12:41:18.978Z,9.33
2018-10-21T12:42:23.680Z,8.98
2018-10-21T12:43:27.228Z,6.65
2018-10-21T12:44:30.969Z,5.70
2018-10-21T12:45:34.831Z,9.20
2018-10-21T12:46:39.316Z,7.22
2018-10-21T12:47:43.747Z,10.75
2018-10-21T12:48:47.288Z,6.67
2018-10-21T12:49:50.924Z,5.58
2018-10-21T12:50:56.557Z,6.28
2018-10-21T12:52:00.435Z,9.20
2018-10-21T12:53:04.271Z,5.90
2018-10-21T12:54:08.693Z,6.45
2018-10-21T12:55:12.648Z,7.35
2018-10-21T12:56:16.414Z,6.30
2018-10-21T12:57:20.481Z,5.22
2018-10-21T12:58:24.177Z,6.10
2018-10-21T12:59:28.176Z,4.85
2018-10-21T13:00:32.074Z,7.33
2018-10-21T13:01:36.527Z,6.70
2018-10-21T13:02:40.926Z,5.42
2018-10-21T13:03:47.094Z,7.10
2018-10-21T13:04:52.268Z,7.45
2018-10-21T13:05:57.228Z,5.03
2018-10-21T13:07:01.084Z,6.67
2018-10-21T13:08:05.172Z,7.53
2018-10-21T13:09:10.021Z,5.92
2018-10-21T13:10:14.697Z,8.03
2018-10-21T13:11:18.517Z,7.30
2018-10-21T13:12:22.365Z,7.90
2018-10-21T13:13:26.101Z,8.60
2018-10-21T13:14:30.324Z,8.50
2018-10-21T13:15:34.303Z,7.15
2018-10-21T13:16:38.266Z,8.00
2018-10-21T13:17:42.667Z,6.90
2018-10-21T13:18:46.589Z,6.67
2018-10-21T13:19:50.533Z,4.75
2018-10-21T13:20:55.624Z,6.65
2018-10-21T13:21:59.473Z,8.45
2018-10-21T13:23:03.268Z,7.72
2018-10-21T13:24:08.721Z,6.42
2018-10-21T13:25:13.136Z,9.15
2018-10-21T13:26:16.725Z,6.75
2018-10-21T13:27:20.822Z,6.58
2018-10-21T13:28:24.579Z,4.75
2018-10-21T13:29:28.716Z,5.53
2018-10-21T13:30:32.324Z,5.70
2018-10-21T13:31:35.971Z,7.17
2018-10-21T13:32:40.200Z,4.62
2018-10-21T13:33:43.972Z,6.75
2018-10-21T13:34:48.848Z,6.90
2018-10-21T13:35:52.546Z,6.72
2018-10-21T13:36:57.357Z,5.70
2018-10-21T13:38:01.124Z,5.80
2018-10-21T13:39:07.882Z,5.70
2018-10-21T13:40:12.572Z,5.30
2018-10-21T13:41:16.289Z,5.08
2018-10-21T13:42:20.131Z,5.42
2018-10-21T13:43:24.013Z,4.80
2018-10-21T13:44:27.908Z,4.60
2018-10-21T13:45:31.644Z,3.87
2018-10-21T13:46:35.505Z,6.33
2018-10-21T13:47:39.493Z,4.22
2018-10-21T13:48:43.281Z,4.87
2018-10-21T13:49:47.526Z,5.33
2018-10-21T13:50:51.340Z,5.10